Time;durP1;ratioP1;P1;durP2;ratioP2;P2;SDS_P1;SDS_P2;PMS_P1;PMS_P2;Temp;Humidity;BMP_temperature;BMP_pressure;BME280_temperature;BME280_humidity;BME280_pressure;Samples;Min_cycle;Max_cycle;Signal;HPM_P1;HPM_P2
2023/09/20 00:01:03;;;;;;;4.50;1.75;;;;;;;;;;5044194;28;20393;-55
2023/09/20 00:03:29;;;;;;;5.35;1.95;;;;;;;;;;5044770;28;20075;-57
2023/09/20 00:05:55;;;;;;;5.85;1.98;;;;;;;;;;5039323;28;20021;-56
2023/09/20 00:08:20;;;;;;;4.07;2.00;;;;;;;;;;5042507;28;20040;-57
2023/09/20 00:10:45;;;;;;;5.57;2.30;;;;;;;;;;5044170;28;20049;-57
2023/09/20 00:13:11;;;;;;;5.28;2.50;;;;;;;;;;5044680;28;20301;-57
2023/09/20 00:15:37;;;;;;;3.22;2.20;;;;;;;;;;5044129;28;20025;-57
2023/09/20 00:18:03;;;;;;;3.22;2.13;;;;;;;;;;5043831;28;20909;-57
2023/09/20 00:20:28;;;;;;;3.85;1.95;;;;;;;;;;5048011;28;20029;-56
2023/09/20 00:22:54;;;;;;;4.73;2.30;;;;;;;;;;5048257;28;20017;-56
2023/09/20 00:25:20;;;;;;;3.40;1.80;;;;;;;;;;5046221;28;22666;-56
2023/09/20 00:27:45;;;;;;;5.00;2.25;;;;;;;;;;5047571;28;20070;-56
2023/09/20 00:30:14;;;;;;;4.32;2.17;;;;;;;;;;5046395;28;20087;-56
2023/09/20 00:32:42;;;;;;;5.45;2.20;;;;;;;;;;5047741;28;20053;-56
2023/09/20 00:35:08;;;;;;;3.05;2.03;;;;;;;;;;5028100;28;20026;-57
2023/09/20 00:37:33;;;;;;;3.53;2.20;;;;;;;;;;5043933;28;20102;-55
2023/09/20 00:39:58;;;;;;;3.67;2.25;;;;;;;;;;5047303;28;20033;-56
2023/09/20 00:42:24;;;;;;;5.25;2.25;;;;;;;;;;5047572;28;20052;-56
2023/09/20 00:44:49;;;;;;;4.47;2.33;;;;;;;;;;5047443;28;20037;-55
2023/09/20 00:47:14;;;;;;;5.18;2.40;;;;;;;;;;5045973;28;20098;-56
2023/09/20 00:49:41;;;;;;;3.13;2.20;;;;;;;;;;5047238;28;20056;-56
2023/09/20 00:52:06;;;;;;;3.83;2.20;;;;;;;;;;5047924;28;20029;-57
2023/09/20 00:54:31;;;;;;;5.13;2.70;;;;;;;;;;5047330;28;20115;-55
2023/09/20 00:56:57;;;;;;;7.30;2.90;;;;;;;;;;5046641;28;20098;-55
2023/09/20 00:59:22;;;;;;;4.30;2.45;;;;;;;;;;5046485;28;20278;-56
2023/09/20 01:01:47;;;;;;;4.95;2.72;;;;;;;;;;5046096;28;20442;-56
2023/09/20 01:04:12;;;;;;;5.28;3.70;;;;;;;;;;5047215;28;20029;-61
2023/09/20 01:06:38;;;;;;;5.38;3.78;;;;;;;;;;5039490;28;20570;-55
2023/09/20 01:09:03;;;;;;;6.28;4.35;;;;;;;;;;5046415;28;20029;-57
2023/09/20 01:11:28;;;;;;;8.40;5.57;;;;;;;;;;5045663;28;20567;-57
2023/09/20 01:13:54;;;;;;;9.65;5.63;;;;;;;;;;5044827;28;20432;-57
2023/09/20 01:16:19;;;;;;;10.48;6.60;;;;;;;;;;5045797;28;20037;-57
2023/09/20 01:18:45;;;;;;;10.70;6.47;;;;;;;;;;5045094;28;20029;-57
2023/09/20 01:21:13;;;;;;;10.00;7.13;;;;;;;;;;5046004;28;20276;-57
2023/09/20 01:23:42;;;;;;;10.38;7.20;;;;;;;;;;5046217;28;20406;-57
2023/09/20 01:26:07;;;;;;;12.65;7.30;;;;;;;;;;5046445;28;20025;-56
2023/09/20 01:28:35;;;;;;;14.10;9.05;;;;;;;;;;5044440;28;20122;-58
2023/09/20 01:31:04;;;;;;;13.10;8.70;;;;;;;;;;5046537;28;20102;-56
2023/09/20 01:33:29;;;;;;;12.82;9.30;;;;;;;;;;5045755;28;20111;-56
2023/09/20 01:35:54;;;;;;;14.65;9.45;;;;;;;;;;5046314;28;20485;-56
2023/09/20 01:38:20;;;;;;;13.67;9.90;;;;;;;;;;5044437;28;20127;-55
2023/09/20 01:40:46;;;;;;;15.60;10.82;;;;;;;;;;5046203;28;20336;-55
2023/09/20 01:43:11;;;;;;;17.08;11.18;;;;;;;;;;5044950;28;20033;-57
2023/09/20 01:45:37;;;;;;;16.38;11.52;;;;;;;;;;5046599;28;20526;-56
2023/09/20 01:48:08;;;;;;;14.13;10.43;;;;;;;;;;5045415;28;20120;-58
2023/09/20 01:50:34;;;;;;;14.95;10.75;;;;;;;;;;5046055;28;20520;-57
2023/09/20 01:53:00;;;;;;;16.52;11.13;;;;;;;;;;5044797;28;20086;-56
2023/09/20 01:55:27;;;;;;;15.55;11.18;;;;;;;;;;5044104;28;20029;-58
2023/09/20 01:57:53;;;;;;;16.17;11.40;;;;;;;;;;5044881;28;20033;-58
2023/09/20 02:00:22;;;;;;;16.75;12.05;;;;;;;;;;5044590;28;20433;-57
2023/09/20 02:02:50;;;;;;;20.08;11.75;;;;;;;;;;5045736;28;20037;-56
2023/09/20 02:05:17;;;;;;;18.02;11.82;;;;;;;;;;5045310;28;20116;-58
2023/09/20 02:07:46;;;;;;;16.90;11.27;;;;;;;;;;5045389;28;20033;-58
2023/09/20 02:10:11;;;;;;;14.77;10.88;;;;;;;;;;5044044;28;20073;-56
2023/09/20 02:12:36;;;;;;;15.60;10.57;;;;;;;;;;5046277;28;20033;-56
2023/09/20 02:15:07;;;;;;;16.38;10.80;;;;;;;;;;5045736;28;20041;-56
2023/09/20 02:17:33;;;;;;;15.68;10.40;;;;;;;;;;5043796;28;20124;-56
2023/09/20 02:19:58;;;;;;;14.80;9.93;;;;;;;;;;5045038;28;20048;-57
2023/09/20 02:22:24;;;;;;;16.38;10.93;;;;;;;;;;5044260;28;20037;-57
2023/09/20 02:24:49;;;;;;;16.77;11.27;;;;;;;;;;5041631;28;20505;-57
2023/09/20 02:27:14;;;;;;;16.48;9.75;;;;;;;;;;5032957;28;20472;-56
2023/09/20 02:29:40;;;;;;;13.40;9.32;;;;;;;;;;5036532;28;20592;-60
2023/09/20 02:32:05;;;;;;;13.77;9.45;;;;;;;;;;5032203;28;20072;-56
2023/09/20 02:34:30;;;;;;;15.60;9.02;;;;;;;;;;5031639;28;20429;-56
2023/09/20 02:36:56;;;;;;;14.90;9.95;;;;;;;;;;5037020;28;20036;-56
2023/09/20 02:39:22;;;;;;;12.27;8.52;;;;;;;;;;5044376;28;20471;-57
2023/09/20 02:41:48;;;;;;;13.60;9.05;;;;;;;;;;5044877;28;20071;-57
2023/09/20 02:44:13;;;;;;;12.48;8.57;;;;;;;;;;5043755;28;20052;-56
2023/09/20 02:46:39;;;;;;;12.68;8.85;;;;;;;;;;5045359;28;20033;-57
2023/09/20 02:49:07;;;;;;;12.75;8.35;;;;;;;;;;5044529;28;20033;-56
2023/09/20 02:51:35;;;;;;;12.27;7.55;;;;;;;;;;5044652;28;20051;-56
2023/09/20 02:54:00;;;;;;;14.43;8.48;;;;;;;;;;5045097;28;20037;-56
2023/09/20 02:56:25;;;;;;;12.13;7.70;;;;;;;;;;5044799;28;20431;-56
2023/09/20 02:58:52;;;;;;;12.40;8.60;;;;;;;;;;5043808;28;20044;-56
2023/09/20 03:01:18;;;;;;;12.13;7.55;;;;;;;;;;5044950;28;20036;-56
2023/09/20 03:03:43;;;;;;;12.25;7.97;;;;;;;;;;5043151;28;20089;-58
2023/09/20 03:06:12;;;;;;;11.90;7.65;;;;;;;;;;5042338;28;20124;-56
2023/09/20 03:08:43;;;;;;;11.65;7.63;;;;;;;;;;5043843;28;20505;-56
2023/09/20 03:11:09;;;;;;;10.88;6.70;;;;;;;;;;5044690;28;20045;-56
2023/09/20 03:13:35;;;;;;;10.32;6.72;;;;;;;;;;5044655;28;20036;-56
2023/09/20 03:16:01;;;;;;;12.43;6.63;;;;;;;;;;5044562;28;20037;-57
2023/09/20 03:18:27;;;;;;;11.07;6.75;;;;;;;;;;5045081;28;20131;-56
2023/09/20 03:20:52;;;;;;;10.20;5.93;;;;;;;;;;5043253;28;20052;-56
2023/09/20 03:23:18;;;;;;;10.00;5.30;;;;;;;;;;5043991;28;20041;-56
2023/09/20 03:25:43;;;;;;;8.60;5.35;;;;;;;;;;5043906;28;20037;-56
2023/09/20 03:28:09;;;;;;;9.40;5.13;;;;;;;;;;5043892;28;20041;-56
2023/09/20 03:30:37;;;;;;;9.05;5.80;;;;;;;;;;5044112;28;20052;-56
2023/09/20 03:33:04;;;;;;;10.38;5.97;;;;;;;;;;5042906;28;20045;-55
2023/09/20 03:35:29;;;;;;;12.02;6.68;;;;;;;;;;5043489;28;20441;-56
2023/09/20 03:37:54;;;;;;;8.80;5.33;;;;;;;;;;5044242;28;20042;-56
2023/09/20 03:40:22;;;;;;;8.27;5.35;;;;;;;;;;5042665;28;20380;-56
2023/09/20 03:42:48;;;;;;;7.90;5.10;;;;;;;;;;5044016;28;20056;-57
2023/09/20 03:45:17;;;;;;;9.77;5.82;;;;;;;;;;5044605;28;20492;-57
2023/09/20 03:47:42;;;;;;;9.73;6.43;;;;;;;;;;5044167;28;20029;-56
2023/09/20 03:50:09;;;;;;;9.60;5.72;;;;;;;;;;5044361;28;20082;-58
2023/09/20 03:52:36;;;;;;;9.38;6.00;;;;;;;;;;5043846;28;20045;-56
2023/09/20 03:55:02;;;;;;;8.15;5.78;;;;;;;;;;5048243;28;20131;-56
2023/09/20 03:57:27;;;;;;;9.70;6.18;;;;;;;;;;5048479;28;20501;-56
2023/09/20 03:59:52;;;;;;;10.65;6.55;;;;;;;;;;5048013;28;20114;-56
2023/09/20 04:02:18;;;;;;;10.43;6.80;;;;;;;;;;5047154;28;20037;-61
2023/09/20 04:04:43;;;;;;;8.77;6.05;;;;;;;;;;5047404;28;20409;-56
2023/09/20 04:07:09;;;;;;;10.30;6.13;;;;;;;;;;5042894;28;20498;-56
2023/09/20 04:09:35;;;;;;;10.48;6.45;;;;;;;;;;5035913;28;20151;-57
2023/09/20 04:12:01;;;;;;;10.00;6.75;;;;;;;;;;5047761;28;20045;-57
2023/09/20 04:14:26;;;;;;;11.18;7.30;;;;;;;;;;5047860;28;20131;-57
2023/09/20 04:16:53;;;;;;;11.67;6.83;;;;;;;;;;5046424;28;20036;-57
2023/09/20 04:19:21;;;;;;;9.85;6.45;;;;;;;;;;5047686;28;20746;-57
2023/09/20 04:21:46;;;;;;;11.07;7.00;;;;;;;;;;5047407;28;20032;-58
2023/09/20 04:24:11;;;;;;;13.35;7.50;;;;;;;;;;5045873;28;20041;-56
2023/09/20 04:26:37;;;;;;;11.70;6.75;;;;;;;;;;5044702;28;20045;-57
2023/09/20 04:29:02;;;;;;;9.32;6.47;;;;;;;;;;5047401;28;20055;-57
2023/09/20 04:31:28;;;;;;;12.82;6.82;;;;;;;;;;5029544;28;20488;-56
2023/09/20 04:33:54;;;;;;;10.63;7.32;;;;;;;;;;5045387;28;20040;-56
2023/09/20 04:36:19;;;;;;;10.15;7.38;;;;;;;;;;5046593;22;20033;-55
2023/09/20 04:38:44;;;;;;;10.65;7.65;;;;;;;;;;5033242;28;20501;-55
2023/09/20 04:41:12;;;;;;;11.73;7.88;;;;;;;;;;5035743;28;20033;-55
2023/09/20 04:43:38;;;;;;;9.88;7.32;;;;;;;;;;5032975;28;20453;-55
2023/09/20 04:46:03;;;;;;;11.50;7.45;;;;;;;;;;5033849;28;20029;-57
2023/09/20 04:48:28;;;;;;;9.98;7.03;;;;;;;;;;5033812;28;20021;-56
2023/09/20 04:50:55;;;;;;;12.07;7.73;;;;;;;;;;5034069;28;20877;-58
2023/09/20 04:53:21;;;;;;;11.88;7.70;;;;;;;;;;5032083;28;20312;-56
2023/09/20 04:55:46;;;;;;;12.68;8.18;;;;;;;;;;5031698;22;20041;-57
2023/09/20 04:58:12;;;;;;;10.73;7.90;;;;;;;;;;5031778;28;20025;-56
2023/09/20 05:00:37;;;;;;;10.05;7.45;;;;;;;;;;5032469;28;20660;-57
2023/09/20 05:03:03;;;;;;;14.38;7.75;;;;;;;;;;5030835;28;20486;-57
2023/09/20 05:05:28;;;;;;;12.32;7.07;;;;;;;;;;5032028;28;21669;-57
2023/09/20 05:07:54;;;;;;;10.80;7.80;;;;;;;;;;5030801;28;20017;-57
2023/09/20 05:10:19;;;;;;;11.02;7.63;;;;;;;;;;5031764;28;20128;-58
2023/09/20 05:12:47;;;;;;;13.60;7.95;;;;;;;;;;5031511;28;20100;-58
2023/09/20 05:15:13;;;;;;;11.48;7.47;;;;;;;;;;5032691;28;20079;-57
2023/09/20 05:17:38;;;;;;;9.77;7.03;;;;;;;;;;5032670;28;20594;-57
2023/09/20 05:20:05;;;;;;;9.65;6.97;;;;;;;;;;5032219;28;20032;-58
2023/09/20 05:22:30;;;;;;;10.57;7.18;;;;;;;;;;5031483;28;20493;-57
2023/09/20 05:24:57;;;;;;;10.77;7.38;;;;;;;;;;5032172;28;20032;-58
2023/09/20 05:27:23;;;;;;;9.15;6.55;;;;;;;;;;5036483;28;20469;-57
2023/09/20 05:29:50;;;;;;;10.13;6.85;;;;;;;;;;5032143;28;20138;-58
2023/09/20 05:32:16;;;;;;;8.70;7.03;;;;;;;;;;5030903;28;20033;-58
2023/09/20 05:34:42;;;;;;;9.52;6.93;;;;;;;;;;5032348;28;20033;-58
2023/09/20 05:37:07;;;;;;;9.55;6.55;;;;;;;;;;5032405;28;20025;-58
2023/09/20 05:39:34;;;;;;;11.30;7.10;;;;;;;;;;5031393;28;20462;-58
2023/09/20 05:42:00;;;;;;;9.05;7.22;;;;;;;;;;5031333;28;20055;-58
2023/09/20 05:44:25;;;;;;;10.82;6.57;;;;;;;;;;5032611;28;20476;-59
2023/09/20 05:46:51;;;;;;;9.45;6.90;;;;;;;;;;5032007;28;20147;-58
2023/09/20 05:49:18;;;;;;;9.15;6.43;;;;;;;;;;5031250;28;20548;-58
2023/09/20 05:51:44;;;;;;;10.10;7.05;;;;;;;;;;5031135;28;20053;-58
2023/09/20 05:54:09;;;;;;;13.07;7.70;;;;;;;;;;5030576;28;20112;-58
2023/09/20 05:56:35;;;;;;;11.90;8.23;;;;;;;;;;5031836;28;20119;-59
2023/09/20 05:59:01;;;;;;;11.73;7.95;;;;;;;;;;5030498;28;20417;-59
2023/09/20 06:01:30;;;;;;;12.55;8.82;;;;;;;;;;5039790;28;20041;-58
2023/09/20 06:03:56;;;;;;;11.93;9.35;;;;;;;;;;5041123;28;20025;-59
2023/09/20 06:06:21;;;;;;;12.82;9.70;;;;;;;;;;5034514;28;20038;-58
2023/09/20 06:08:47;;;;;;;13.25;9.63;;;;;;;;;;5043493;28;20033;-59
2023/09/20 06:11:12;;;;;;;13.82;9.98;;;;;;;;;;5042086;28;20046;-57
2023/09/20 06:13:38;;;;;;;12.40;9.60;;;;;;;;;;5041968;28;20339;-59
2023/09/20 06:16:05;;;;;;;14.35;9.50;;;;;;;;;;5035142;28;20288;-57
2023/09/20 06:18:30;;;;;;;12.20;9.93;;;;;;;;;;5037322;28;20094;-58
2023/09/20 06:20:59;;;;;;;13.27;10.10;;;;;;;;;;5045723;28;20479;-57
2023/09/20 06:23:27;;;;;;;15.60;11.15;;;;;;;;;;5045004;28;20292;-58
2023/09/20 06:25:53;;;;;;;16.52;10.73;;;;;;;;;;5045713;28;20025;-58
2023/09/20 06:28:19;;;;;;;16.52;11.43;;;;;;;;;;5043435;28;20033;-57
2023/09/20 06:30:44;;;;;;;15.07;11.57;;;;;;;;;;5044834;28;20293;-57
2023/09/20 06:33:10;;;;;;;19.27;12.75;;;;;;;;;;5045393;28;20040;-57
2023/09/20 06:35:39;;;;;;;15.45;11.32;;;;;;;;;;5038275;28;20051;-58
2023/09/20 06:38:05;;;;;;;14.48;11.68;;;;;;;;;;5042454;28;20585;-57
2023/09/20 06:40:39;;;;;;;14.68;11.60;;;;;;;;;;5045742;28;20128;-57
2023/09/20 06:43:07;;;;;;;14.75;11.38;;;;;;;;;;5041127;28;20085;-58
2023/09/20 06:45:32;;;;;;;14.90;11.25;;;;;;;;;;5035620;28;20570;-58
2023/09/20 06:47:57;;;;;;;13.82;10.20;;;;;;;;;;5039762;28;20037;-58
2023/09/20 06:50:23;;;;;;;16.38;10.75;;;;;;;;;;5045364;28;20515;-57
2023/09/20 06:52:51;;;;;;;16.13;10.80;;;;;;;;;;5046900;28;20028;-57
2023/09/20 06:55:18;;;;;;;13.65;10.77;;;;;;;;;;5044432;28;20489;-58
2023/09/20 06:57:44;;;;;;;14.73;11.30;;;;;;;;;;5045854;28;20039;-57
2023/09/20 07:00:25;;;;;;;14.32;10.15;;;;;;;;;;5045548;28;20029;-57
2023/09/20 07:02:51;;;;;;;14.07;10.00;;;;;;;;;;5042983;28;20044;-58
2023/09/20 07:05:17;;;;;;;16.77;11.60;;;;;;;;;;5040120;28;20448;-58
2023/09/20 07:07:43;;;;;;;15.85;10.68;;;;;;;;;;5044064;28;20035;-58
2023/09/20 07:10:09;;;;;;;17.30;12.00;;;;;;;;;;5044746;28;20548;-57
2023/09/20 07:12:35;;;;;;;16.65;12.15;;;;;;;;;;5037895;28;20033;-57
2023/09/20 07:15:05;;;;;;;17.63;12.25;;;;;;;;;;5042507;28;20029;-58
2023/09/20 07:17:31;;;;;;;16.50;11.68;;;;;;;;;;5033796;28;20042;-57
2023/09/20 07:19:57;;;;;;;17.30;12.17;;;;;;;;;;5041426;28;20071;-57
2023/09/20 07:22:23;;;;;;;18.38;11.90;;;;;;;;;;5033515;28;20591;-57
2023/09/20 07:24:54;;;;;;;17.95;11.75;;;;;;;;;;5030785;28;20058;-57
2023/09/20 07:27:19;;;;;;;15.65;11.98;;;;;;;;;;5028704;28;20044;-57
2023/09/20 07:29:45;;;;;;;16.17;11.57;;;;;;;;;;5029530;28;20040;-57
2023/09/20 07:32:10;;;;;;;16.27;11.77;;;;;;;;;;5029741;28;20413;-57
2023/09/20 07:34:36;;;;;;;17.75;12.15;;;;;;;;;;5028647;28;20367;-58
2023/09/20 07:37:02;;;;;;;18.23;12.90;;;;;;;;;;5027852;28;20126;-57
2023/09/20 07:39:28;;;;;;;17.75;12.38;;;;;;;;;;5029550;28;20045;-57
2023/09/20 07:41:58;;;;;;;16.83;12.77;;;;;;;;;;5028389;28;20033;-57
2023/09/20 07:44:31;;;;;;;18.92;12.88;;;;;;;;;;5028448;28;20090;-56
2023/09/20 07:46:57;;;;;;;16.63;12.57;;;;;;;;;;5032143;28;20615;-57
2023/09/20 07:49:22;;;;;;;19.25;13.13;;;;;;;;;;5028790;28;20119;-57
2023/09/20 07:51:50;;;;;;;22.05;13.65;;;;;;;;;;5029261;28;20056;-57
2023/09/20 07:54:17;;;;;;;16.88;13.48;;;;;;;;;;5028327;28;20505;-56
2023/09/20 07:56:43;;;;;;;16.50;13.13;;;;;;;;;;5027909;28;20447;-56
2023/09/20 07:59:09;;;;;;;20.23;14.25;;;;;;;;;;5028425;28;20064;-57
2023/09/20 08:01:34;;;;;;;20.40;13.20;;;;;;;;;;5028345;28;20033;-57
2023/09/20 08:03:59;;;;;;;19.92;15.15;;;;;;;;;;5032353;28;20138;-57
2023/09/20 08:06:29;;;;;;;20.90;13.73;;;;;;;;;;5027452;28;20037;-58
2023/09/20 08:08:57;;;;;;;19.92;14.43;;;;;;;;;;5028625;28;20064;-58
2023/09/20 08:11:23;;;;;;;19.20;13.88;;;;;;;;;;5029411;28;20046;-59
2023/09/20 08:13:51;;;;;;;22.00;14.13;;;;;;;;;;5026307;28;20493;-57
2023/09/20 08:16:16;;;;;;;19.73;13.50;;;;;;;;;;5028273;28;20036;-57
2023/09/20 08:21:26;;;;;;;19.65;14.63;;;;;;;;;;5029636;28;20652;-57
2023/09/20 09:00:18;;;;;;;19.52;13.18;;;;;;;;;;5035300;28;20040;-58
2023/09/20 09:02:43;;;;;;;22.08;14.18;;;;;;;;;;5042391;28;20171;-57
2023/09/20 09:05:08;;;;;;;19.98;13.75;;;;;;;;;;5039492;28;20132;-57
2023/09/20 09:07:33;;;;;;;20.70;13.47;;;;;;;;;;5033390;28;20167;-56
2023/09/20 09:09:59;;;;;;;19.93;12.77;;;;;;;;;;5033808;28;20327;-57
2023/09/20 09:12:24;;;;;;;20.52;12.07;;;;;;;;;;5039017;28;20290;-57
2023/09/20 09:14:49;;;;;;;19.13;12.90;;;;;;;;;;5037116;28;20053;-57
2023/09/20 09:17:16;;;;;;;19.20;13.10;;;;;;;;;;5034527;28;20616;-57
2023/09/20 09:19:41;;;;;;;15.32;10.40;;;;;;;;;;5037969;28;20398;-57
2023/09/20 09:22:07;;;;;;;15.83;11.27;;;;;;;;;;5036037;28;20390;-56
2023/09/20 09:24:45;;;;;;;19.08;12.63;;;;;;;;;;5041027;28;20328;-57
2023/09/20 09:27:10;;;;;;;16.80;10.80;;;;;;;;;;5036767;28;20537;-57
2023/09/20 09:29:36;;;;;;;18.70;12.45;;;;;;;;;;5041593;28;20040;-57
2023/09/20 09:32:01;;;;;;;18.33;12.27;;;;;;;;;;5033078;28;20060;-57
2023/09/20 09:34:27;;;;;;;17.98;12.15;;;;;;;;;;5032430;28;20041;-57
2023/09/20 09:36:53;;;;;;;18.17;12.10;;;;;;;;;;5034253;28;20090;-57
2023/09/20 09:39:18;;;;;;;18.88;11.88;;;;;;;;;;5033133;28;20029;-57
2023/09/20 09:41:44;;;;;;;20.60;12.25;;;;;;;;;;5036397;28;20091;-57
2023/09/20 09:44:10;;;;;;;20.42;13.40;;;;;;;;;;5035084;28;20473;-57
2023/09/20 09:46:38;;;;;;;16.60;10.82;;;;;;;;;;5041606;28;20060;-57
2023/09/20 09:49:03;;;;;;;16.05;10.27;;;;;;;;;;5042411;28;20128;-58
2023/09/20 09:51:30;;;;;;;16.45;10.80;;;;;;;;;;5032091;28;20049;-57
2023/09/20 09:53:56;;;;;;;16.05;11.75;;;;;;;;;;5032073;28;20043;-56
2023/09/20 09:56:21;;;;;;;17.60;11.50;;;;;;;;;;5035669;28;20034;-57
2023/09/20 09:58:47;;;;;;;15.67;10.80;;;;;;;;;;5034180;28;20029;-56
2023/09/20 10:01:14;;;;;;;15.52;11.05;;;;;;;;;;5036173;28;20299;-57
2023/09/20 10:03:41;;;;;;;16.23;10.43;;;;;;;;;;5034143;28;20045;-57
2023/09/20 10:06:12;;;;;;;16.92;9.82;;;;;;;;;;5035511;28;20036;-57
2023/09/20 10:08:38;;;;;;;14.35;9.40;;;;;;;;;;5032865;28;20051;-57
2023/09/20 10:11:05;;;;;;;11.68;8.18;;;;;;;;;;5029438;28;20777;-57
2023/09/20 10:13:30;;;;;;;13.55;9.43;;;;;;;;;;5028655;28;20961;-58
2023/09/20 10:15:57;;;;;;;14.23;9.50;;;;;;;;;;5029940;28;20056;-57
2023/09/20 10:18:24;;;;;;;14.68;9.07;;;;;;;;;;5034856;28;20282;-56
2023/09/20 10:20:59;;;;;;;14.20;9.25;;;;;;;;;;5029693;28;20044;-56
2023/09/20 10:23:25;;;;;;;13.85;8.35;;;;;;;;;;5030614;28;20522;-59
2023/09/20 10:25:53;;;;;;;10.88;7.43;;;;;;;;;;5029345;28;20052;-56
2023/09/20 10:28:18;;;;;;;9.18;6.60;;;;;;;;;;5034031;28;20029;-56
2023/09/20 10:30:56;;;;;;;10.63;6.13;;;;;;;;;;5045586;28;20493;-56
2023/09/20 10:33:45;;;;;;;8.40;5.25;;;;;;;;;;5027789;28;20072;-56
2023/09/20 10:36:19;;;;;;;9.20;5.05;;;;;;;;;;5021380;28;20086;-56
2023/09/20 10:38:46;;;;;;;7.47;5.05;;;;;;;;;;5029473;28;20132;-56
2023/09/20 10:41:12;;;;;;;6.05;4.72;;;;;;;;;;5027911;28;20033;-57
2023/09/20 10:43:37;;;;;;;8.20;4.88;;;;;;;;;;5032624;28;20115;-57
2023/09/20 10:46:14;;;;;;;6.38;4.47;;;;;;;;;;5027204;28;20030;-56
2023/09/20 10:48:44;;;;;;;7.13;4.25;;;;;;;;;;5032042;28;20124;-56
2023/09/20 10:51:09;;;;;;;6.90;4.30;;;;;;;;;;5028822;28;20497;-57
2023/09/20 10:53:40;;;;;;;7.43;4.20;;;;;;;;;;5029762;28;20022;-57
2023/09/20 10:56:06;;;;;;;7.50;4.30;;;;;;;;;;5030378;28;20132;-57
2023/09/20 10:58:33;;;;;;;6.63;4.03;;;;;;;;;;5033874;28;20059;-59
2023/09/20 11:00:58;;;;;;;4.40;3.55;;;;;;;;;;5034280;28;20055;-57
2023/09/20 11:03:24;;;;;;;7.10;4.00;;;;;;;;;;5030037;28;20044;-58
2023/09/20 11:05:49;;;;;;;5.90;3.58;;;;;;;;;;5031496;28;20793;-57
2023/09/20 11:08:14;;;;;;;9.23;3.90;;;;;;;;;;5034013;28;20489;-59
2023/09/20 11:10:46;;;;;;;6.95;3.88;;;;;;;;;;5038590;28;20292;-58
2023/09/20 11:13:11;;;;;;;5.65;3.45;;;;;;;;;;5037898;28;20029;-57
2023/09/20 11:15:43;;;;;;;4.95;3.13;;;;;;;;;;5031179;28;20044;-58
2023/09/20 11:18:09;;;;;;;5.55;3.30;;;;;;;;;;5031218;28;20406;-57
2023/09/20 11:20:34;;;;;;;6.07;3.30;;;;;;;;;;5029695;28;20033;-57
2023/09/20 11:23:02;;;;;;;5.18;3.08;;;;;;;;;;5026041;28;20033;-60
2023/09/20 11:25:30;;;;;;;7.40;3.40;;;;;;;;;;5028855;28;20116;-57
2023/09/20 11:27:56;;;;;;;6.05;3.15;;;;;;;;;;5029886;28;20258;-57
2023/09/20 11:30:24;;;;;;;5.53;3.22;;;;;;;;;;5030307;28;20568;-57
2023/09/20 11:32:49;;;;;;;8.82;3.55;;;;;;;;;;5037493;28;20041;-57
2023/09/20 11:35:30;;;;;;;5.30;3.03;;;;;;;;;;5030498;28;20146;-57
2023/09/20 11:37:55;;;;;;;5.97;3.60;;;;;;;;;;5030028;28;20308;-57
2023/09/20 11:40:21;;;;;;;5.87;3.20;;;;;;;;;;5037529;28;20579;-58
2023/09/20 11:42:46;;;;;;;5.83;3.50;;;;;;;;;;5032920;28;20326;-58
2023/09/20 11:45:11;;;;;;;7.43;3.20;;;;;;;;;;5035522;28;20303;-58
2023/09/20 11:47:42;;;;;;;5.87;2.87;;;;;;;;;;5033135;28;20025;-58
2023/09/20 11:50:12;;;;;;;6.45;3.30;;;;;;;;;;5034190;28;20334;-59
2023/09/20 11:52:38;;;;;;;6.45;3.03;;;;;;;;;;5031932;28;20041;-58
2023/09/20 11:55:04;;;;;;;4.25;2.95;;;;;;;;;;5033423;28;20502;-58
2023/09/20 11:57:33;;;;;;;5.35;2.80;;;;;;;;;;5038534;28;20036;-58
2023/09/20 12:00:01;;;;;;;6.10;2.78;;;;;;;;;;5033774;28;20039;-58
2023/09/20 12:02:26;;;;;;;6.63;3.13;;;;;;;;;;5033274;28;20045;-58
2023/09/20 12:04:51;;;;;;;6.50;2.90;;;;;;;;;;5032363;28;20112;-59
2023/09/20 12:07:17;;;;;;;6.72;2.85;;;;;;;;;;5032486;28;20056;-57
2023/09/20 12:09:42;;;;;;;5.97;2.85;;;;;;;;;;5030045;28;20651;-58
2023/09/20 12:12:10;;;;;;;4.10;2.67;;;;;;;;;;5032616;28;20537;-58
2023/09/20 12:14:37;;;;;;;5.88;2.58;;;;;;;;;;5036477;28;20299;-57
2023/09/20 12:17:04;;;;;;;5.90;2.88;;;;;;;;;;5034397;28;20029;-58
2023/09/20 12:19:29;;;;;;;7.65;2.45;;;;;;;;;;5034190;28;20045;-57
2023/09/20 12:21:55;;;;;;;5.95;2.70;;;;;;;;;;5034313;28;20029;-57
2023/09/20 12:24:22;;;;;;;5.15;2.50;;;;;;;;;;5036166;28;20063;-58
2023/09/20 12:26:48;;;;;;;7.07;2.67;;;;;;;;;;5035012;28;20036;-57
2023/09/20 12:29:13;;;;;;;4.80;2.90;;;;;;;;;;5034482;28;20037;-57
2023/09/20 12:31:39;;;;;;;6.17;2.77;;;;;;;;;;5038152;28;20144;-57
2023/09/20 12:34:04;;;;;;;5.68;2.45;;;;;;;;;;5036839;28;20487;-57
2023/09/20 12:36:29;;;;;;;7.07;2.50;;;;;;;;;;5036120;28;20079;-58
2023/09/20 12:38:55;;;;;;;5.65;2.42;;;;;;;;;;5031786;28;20044;-58
2023/09/20 12:41:21;;;;;;;5.93;2.60;;;;;;;;;;5035469;28;20463;-57
2023/09/20 12:43:46;;;;;;;5.55;2.10;;;;;;;;;;5032981;28;20029;-58
2023/09/20 12:46:12;;;;;;;6.35;2.55;;;;;;;;;;5034160;28;20120;-58
2023/09/20 12:48:37;;;;;;;5.68;2.70;;;;;;;;;;5036883;28;20037;-57
2023/09/20 12:51:04;;;;;;;5.78;2.55;;;;;;;;;;5032764;28;20124;-56
2023/09/20 12:53:31;;;;;;;5.18;2.50;;;;;;;;;;5032897;28;20460;-58
2023/09/20 12:55:56;;;;;;;6.72;2.60;;;;;;;;;;5037392;28;20051;-57
2023/09/20 12:58:21;;;;;;;9.23;2.57;;;;;;;;;;5035566;28;20116;-57
2023/09/20 13:00:49;;;;;;;5.47;2.30;;;;;;;;;;5038257;28;20380;-58
2023/09/20 13:03:15;;;;;;;7.03;2.50;;;;;;;;;;5035774;28;20515;-57
2023/09/20 13:05:40;;;;;;;6.15;2.20;;;;;;;;;;5040678;28;20037;-57
2023/09/20 13:08:06;;;;;;;7.90;2.57;;;;;;;;;;5035291;28;20424;-57
2023/09/20 13:10:33;;;;;;;4.82;2.30;;;;;;;;;;5034080;28;20311;-56
2023/09/20 13:12:58;;;;;;;6.47;2.40;;;;;;;;;;5035817;28;20586;-58
2023/09/20 13:15:23;;;;;;;4.90;2.20;;;;;;;;;;5038641;28;20045;-57
2023/09/20 13:17:51;;;;;;;6.40;2.50;;;;;;;;;;5039780;28;20707;-57
2023/09/20 13:20:18;;;;;;;5.38;2.55;;;;;;;;;;5017403;28;20303;-57
2023/09/20 13:22:45;;;;;;;5.43;2.50;;;;;;;;;;5040547;28;20128;-57
2023/09/20 13:25:14;;;;;;;9.25;2.65;;;;;;;;;;5035019;28;20079;-58
2023/09/20 13:27:39;;;;;;;5.43;2.50;;;;;;;;;;5032382;28;20041;-57
2023/09/20 13:30:10;;;;;;;5.88;2.38;;;;;;;;;;5035036;28;20419;-58
2023/09/20 13:32:39;;;;;;;7.25;2.70;;;;;;;;;;5035243;28;20600;-57
2023/09/20 13:35:07;;;;;;;9.00;2.55;;;;;;;;;;5038338;28;20088;-57
2023/09/20 13:37:33;;;;;;;7.60;2.60;;;;;;;;;;5035800;28;20040;-57
2023/09/20 13:39:58;;;;;;;7.35;2.70;;;;;;;;;;5039381;28;20021;-57
2023/09/20 13:42:24;;;;;;;6.97;2.97;;;;;;;;;;5032824;28;20041;-58
2023/09/20 13:44:50;;;;;;;4.87;2.00;;;;;;;;;;5032754;28;20865;-57
2023/09/20 13:47:16;;;;;;;6.60;2.38;;;;;;;;;;5031288;28;20300;-57
2023/09/20 13:49:41;;;;;;;7.18;2.65;;;;;;;;;;5034621;28;20059;-56
2023/09/20 13:52:08;;;;;;;8.07;2.65;;;;;;;;;;5031355;28;20106;-56
2023/09/20 13:54:33;;;;;;;6.78;2.65;;;;;;;;;;5031793;28;20033;-56
2023/09/20 13:56:59;;;;;;;6.32;2.60;;;;;;;;;;5031984;28;20532;-57
2023/09/20 13:59:25;;;;;;;4.70;2.47;;;;;;;;;;5030621;28;20790;-57
2023/09/20 14:01:52;;;;;;;5.82;2.58;;;;;;;;;;5030069;28;20088;-58
2023/09/20 14:04:17;;;;;;;6.00;2.50;;;;;;;;;;5030615;28;20034;-56
2023/09/20 14:06:43;;;;;;;7.22;2.50;;;;;;;;;;5045276;28;20016;-57
2023/09/20 14:09:12;;;;;;;5.25;2.25;;;;;;;;;;5044117;28;20108;-57
2023/09/20 14:11:38;;;;;;;7.50;2.42;;;;;;;;;;5045475;28;20123;-56
2023/09/20 14:14:04;;;;;;;6.00;2.50;;;;;;;;;;5036610;28;20096;-56
2023/09/20 14:16:30;;;;;;;6.72;2.45;;;;;;;;;;5037005;28;20029;-57
2023/09/20 14:18:55;;;;;;;6.85;2.60;;;;;;;;;;5045929;28;20013;-57
2023/09/20 14:21:21;;;;;;;8.00;2.40;;;;;;;;;;5046366;28;20021;-57
2023/09/20 14:23:47;;;;;;;8.23;2.88;;;;;;;;;;5046374;28;20417;-57
2023/09/20 14:26:12;;;;;;;7.90;2.50;;;;;;;;;;5044404;28;20316;-57
2023/09/20 14:28:38;;;;;;;10.27;2.43;;;;;;;;;;5045676;28;20025;-58
2023/09/20 14:31:04;;;;;;;6.88;2.47;;;;;;;;;;5041539;28;20327;-57
2023/09/20 14:36:13;;;;;;;5.45;2.38;;;;;;;;;;5032903;28;20056;-58
2023/09/20 14:38:38;;;;;;;5.85;2.50;;;;;;;;;;5045463;28;20501;-58
2023/09/20 14:41:05;;;;;;;9.47;2.37;;;;;;;;;;5045934;28;20521;-57
2023/09/20 14:43:31;;;;;;;8.52;2.60;;;;;;;;;;5027833;28;20279;-58
2023/09/20 14:45:56;;;;;;;8.48;2.22;;;;;;;;;;5045839;28;20033;-57
2023/09/20 14:48:21;;;;;;;7.28;2.60;;;;;;;;;;5041452;28;20447;-58
2023/09/20 14:50:47;;;;;;;7.70;2.57;;;;;;;;;;5030586;28;20520;-58
2023/09/20 14:53:12;;;;;;;6.13;2.50;;;;;;;;;;5044495;28;20417;-59
2023/09/20 14:55:37;;;;;;;7.83;2.23;;;;;;;;;;5045272;28;20688;-58
2023/09/20 14:58:04;;;;;;;6.13;2.30;;;;;;;;;;5044740;28;20320;-58
2023/09/20 15:00:29;;;;;;;6.60;2.25;;;;;;;;;;5045704;28;20025;-59
2023/09/20 15:02:55;;;;;;;9.02;2.83;;;;;;;;;;5045917;28;20056;-58
2023/09/20 15:05:20;;;;;;;6.68;2.40;;;;;;;;;;5032565;28;20056;-58
2023/09/20 15:07:48;;;;;;;9.20;2.45;;;;;;;;;;5041037;28;20044;-59
2023/09/20 15:10:16;;;;;;;9.85;2.58;;;;;;;;;;5043712;28;20049;-58